Time;durP1;ratioP1;P1;durP2;ratioP2;P2;SDS_P1;SDS_P2;PMS_P1;PMS_P2;Temp;Humidity;BMP_temperature;BMP_pressure;BME280_temperature;BME280_humidity;BME280_pressure;Samples;Min_cycle;Max_cycle;Signal;HPM_P1;HPM_P2
2022/01/03 00:01:07;;;;;;;6.63;1.70;;;9.60;99.90;;;;;;5115507;28;20455;-84
2022/01/03 00:03:32;;;;;;;5.40;1.20;;;9.50;99.90;;;;;;5115526;28;20433;-83
2022/01/03 00:05:58;;;;;;;5.07;1.90;;;9.50;99.90;;;;;;5115174;28;20500;-83
2022/01/03 00:08:25;;;;;;;5.40;0.90;;;9.50;99.90;;;;;;5097202;28;20270;-84
2022/01/03 00:10:51;;;;;;;5.37;1.63;;;9.50;99.90;;;;;;5115370;28;20417;-85
2022/01/03 00:13:19;;;;;;;4.03;1.20;;;9.40;99.90;;;;;;5115308;28;20415;-83
2022/01/03 00:15:45;;;;;;;10.40;2.50;;;9.40;99.90;;;;;;5115219;28;20560;-84
2022/01/03 00:18:10;;;;;;;5.70;1.97;;;9.40;99.90;;;;;;5115145;28;20498;-83
2022/01/03 00:20:38;;;;;;;5.90;1.60;;;9.30;99.90;;;;;;5114993;28;20316;-84
2022/01/03 00:23:08;;;;;;;8.90;1.87;;;9.30;99.90;;;;;;5115173;28;20525;-83
2022/01/03 00:25:37;;;;;;;5.00;2.27;;;9.30;99.90;;;;;;5115041;28;20417;-83
2022/01/03 00:28:23;;;;;;;9.83;2.07;;;9.30;99.90;;;;;;5115014;28;20409;-83
2022/01/03 00:30:55;;;;;;;4.60;1.80;;;9.30;99.90;;;;;;5114921;28;20403;-83
2022/01/03 00:33:22;;;;;;;5.13;1.73;;;9.30;99.90;;;;;;5114860;28;20436;-85
2022/01/03 00:35:53;;;;;;;6.50;1.93;;;9.30;99.90;;;;;;5114393;28;20470;-83
2022/01/03 00:38:21;;;;;;;6.77;2.10;;;9.30;99.90;;;;;;5096540;28;21479;-83
2022/01/03 00:40:47;;;;;;;8.03;2.00;;;9.30;99.90;;;;;;5096577;28;20446;-86
2022/01/03 00:43:16;;;;;;;6.17;1.93;;;9.30;99.90;;;;;;5096336;28;21007;-82
2022/01/03 00:49:29;;;;;;;6.73;3.20;;;9.30;99.90;;;;;;5114375;28;20518;-82
2022/01/03 00:51:54;;;;;;;8.90;3.03;;;9.30;99.90;;;;;;5114537;28;20494;-83
2022/01/03 00:54:20;;;;;;;7.37;2.80;;;9.30;99.90;;;;;;5114404;28;20200;-83
2022/01/03 00:56:47;;;;;;;8.30;3.70;;;9.20;99.90;;;;;;5096225;28;20180;-83
2022/01/03 00:59:35;;;;;;;4.70;2.90;;;9.20;99.90;;;;;;5114497;28;20228;-82
2022/01/03 01:02:02;;;;;;;3.03;2.30;;;9.20;99.90;;;;;;5114366;28;20418;-85
2022/01/03 01:04:27;;;;;;;8.63;2.97;;;9.20;99.90;;;;;;5113968;28;20800;-83
2022/01/03 01:06:55;;;;;;;3.87;1.83;;;9.20;99.90;;;;;;5114343;28;20421;-83
2022/01/03 01:09:28;;;;;;;4.00;1.20;;;9.20;99.90;;;;;;5114087;28;20246;-83
2022/01/03 01:11:59;;;;;;;2.40;0.60;;;9.10;99.90;;;;;;5114261;28;20402;-84
2022/01/03 01:14:27;;;;;;;2.83;0.67;;;9.10;99.90;;;;;;5114109;28;20444;-84
2022/01/03 01:16:54;;;;;;;2.50;0.50;;;9.00;99.90;;;;;;5114208;28;20533;-84
2022/01/03 01:19:20;;;;;;;1.87;0.70;;;9.00;99.90;;;;;;5113764;28;20457;-84
2022/01/03 01:21:50;;;;;;;4.77;0.70;;;9.00;99.90;;;;;;5113990;28;20925;-85
2022/01/03 01:24:17;;;;;;;4.93;0.40;;;8.90;99.90;;;;;;5113987;28;20411;-86
2022/01/03 01:29:28;;;;;;;1.07;0.50;;;8.90;99.90;;;;;;5113978;28;20503;-83
2022/01/03 01:31:59;;;;;;;5.33;0.30;;;8.80;99.90;;;;;;5113948;28;20444;-83
2022/01/03 01:34:29;;;;;;;2.40;0.30;;;8.80;99.90;;;;;;5113518;28;20198;-83
2022/01/03 01:36:57;;;;;;;3.23;0.30;;;8.80;99.90;;;;;;5095528;28;20462;-83
2022/01/03 01:39:25;;;;;;;1.13;0.20;;;8.80;99.90;;;;;;5113755;28;20785;-83
2022/01/03 01:41:58;;;;;;;0.30;0.20;;;8.70;99.90;;;;;;5113735;28;20822;-83
2022/01/03 01:44:24;;;;;;;0.60;0.20;;;8.70;99.90;;;;;;5113719;28;20416;-83
2022/01/03 01:46:56;;;;;;;1.20;0.70;;;8.70;99.90;;;;;;5113712;28;20426;-83
2022/01/03 01:49:25;;;;;;;1.10;0.20;;;8.70;99.90;;;;;;5113174;28;20416;-82
2022/01/03 01:51:58;;;;;;;0.80;0.23;;;8.70;99.90;;;;;;5113625;28;20499;-83
2022/01/03 01:54:33;;;;;;;0.97;0.33;;;8.70;99.90;;;;;;5112900;28;20963;-83
2022/01/03 01:57:17;;;;;;;2.30;0.50;;;8.70;99.90;;;;;;5113638;28;20416;-82
2022/01/03 02:00:04;;;;;;;2.00;0.27;;;8.70;99.90;;;;;;5113559;28;20406;-82
2022/01/03 02:02:57;;;;;;;2.10;0.60;;;8.70;99.90;;;;;;5113495;28;20429;-83
2022/01/03 02:05:40;;;;;;;2.13;0.53;;;8.70;99.90;;;;;;5113106;28;20415;-82
2022/01/03 02:08:25;;;;;;;1.00;0.20;;;8.70;99.90;;;;;;5113512;28;20506;-83
2022/01/03 02:11:12;;;;;;;0.60;0.50;;;8.70;99.90;;;;;;5113443;28;20504;-83
2022/01/03 02:13:39;;;;;;;1.63;0.87;;;8.60;99.90;;;;;;5113390;28;20423;-83
2022/01/03 02:16:04;;;;;;;0.77;0.40;;;8.60;99.90;;;;;;5095022;28;20560;-83
2022/01/03 02:18:31;;;;;;;2.23;0.60;;;8.60;99.90;;;;;;5113303;28;20446;-84
2022/01/03 02:20:57;;;;;;;1.33;0.40;;;8.60;99.90;;;;;;5112997;28;20632;-84
2022/01/03 02:23:23;;;;;;;0.57;0.57;;;8.60;99.90;;;;;;5113217;28;20465;-84
2022/01/03 02:25:49;;;;;;;0.70;0.30;;;8.50;99.90;;;;;;5113264;28;20427;-83
2022/01/03 02:28:20;;;;;;;0.80;0.30;;;8.50;99.90;;;;;;5113123;28;20473;-83
2022/01/03 02:30:46;;;;;;;2.87;1.00;;;8.50;99.90;;;;;;5095084;28;20424;-82
2022/01/03 02:33:12;;;;;;;1.07;0.20;;;8.50;99.90;;;;;;5113194;28;20412;-82
2022/01/03 02:35:40;;;;;;;1.50;0.57;;;8.40;99.90;;;;;;5112770;28;20466;-82
2022/01/03 02:38:06;;;;;;;0.90;0.30;;;8.40;99.90;;;;;;5113076;28;20220;-82
2022/01/03 02:40:32;;;;;;;0.60;0.20;;;8.30;99.90;;;;;;5095200;28;20435;-87
2022/01/03 02:42:57;;;;;;;3.13;0.23;;;8.30;99.90;;;;;;5113264;28;20416;-84
2022/01/03 02:45:24;;;;;;;0.67;0.43;;;8.30;99.90;;;;;;5113081;28;20181;-84
2022/01/03 02:47:56;;;;;;;4.53;0.33;;;8.20;99.90;;;;;;5113136;28;20511;-84
2022/01/03 02:50:23;;;;;;;1.90;0.30;;;8.20;99.90;;;;;;5094492;28;20820;-84
2022/01/03 02:52:50;;;;;;;0.63;0.20;;;8.20;99.90;;;;;;5094867;28;20425;-84
2022/01/03 02:55:16;;;;;;;0.80;0.37;;;8.20;99.90;;;;;;5112865;28;20970;-84
2022/01/03 02:57:45;;;;;;;3.23;0.43;;;8.20;99.90;;;;;;5094769;28;20427;-83
2022/01/03 03:00:17;;;;;;;1.13;0.30;;;8.20;99.90;;;;;;5112970;28;20918;-84
2022/01/03 03:02:43;;;;;;;1.53;0.37;;;8.20;99.90;;;;;;5112988;28;20478;-84
2022/01/03 03:05:10;;;;;;;0.70;0.27;;;8.20;99.90;;;;;;5113595;28;20510;-84
2022/01/03 03:07:36;;;;;;;2.13;0.40;;;8.20;99.90;;;;;;5116630;28;20224;-84
2022/01/03 03:10:09;;;;;;;2.13;0.60;;;8.20;99.90;;;;;;5116619;28;20461;-85
2022/01/03 03:12:35;;;;;;;2.17;0.20;;;8.20;99.90;;;;;;5116503;28;20907;-84
2022/01/03 03:15:01;;;;;;;1.33;0.27;;;8.20;99.90;;;;;;5116400;28;20454;-84
2022/01/03 03:17:26;;;;;;;2.30;0.40;;;8.20;99.90;;;;;;5116492;28;20424;-85
2022/01/03 03:19:59;;;;;;;2.97;0.60;;;8.20;99.90;;;;;;5097700;28;20256;-84
2022/01/03 03:22:27;;;;;;;1.63;0.47;;;8.20;99.90;;;;;;5116268;28;20219;-84
2022/01/03 03:25:19;;;;;;;2.90;0.20;;;8.20;99.90;;;;;;5116341;28;20412;-84
2022/01/03 03:27:47;;;;;;;2.03;0.30;;;8.20;99.90;;;;;;5115617;28;20439;-85
2022/01/03 03:30:27;;;;;;;3.67;1.07;;;8.20;99.90;;;;;;5097775;28;20427;-85
2022/01/03 03:32:56;;;;;;;1.90;0.40;;;8.20;99.90;;;;;;5116163;28;20409;-85
2022/01/03 03:35:22;;;;;;;2.20;0.33;;;8.20;99.90;;;;;;5097460;28;20475;-85
2022/01/03 03:37:48;;;;;;;2.67;0.27;;;8.20;99.90;;;;;;5115857;28;20511;-85
2022/01/03 03:40:14;;;;;;;1.87;0.70;;;8.20;99.90;;;;;;5116049;28;20800;-84
2022/01/03 03:42:42;;;;;;;2.60;1.13;;;8.20;99.90;;;;;;5115920;28;20416;-85
2022/01/03 03:45:08;;;;;;;2.80;0.47;;;8.20;99.90;;;;;;5097635;28;20415;-84
2022/01/03 03:47:35;;;;;;;2.57;0.83;;;8.20;99.90;;;;;;5115887;28;20415;-84
2022/01/03 03:50:02;;;;;;;3.53;0.60;;;8.20;99.90;;;;;;5096867;28;20408;-86
2022/01/03 03:52:27;;;;;;;4.03;0.30;;;8.20;99.90;;;;;;5115823;28;20438;-84
2022/01/03 03:54:53;;;;;;;6.10;0.50;;;8.20;99.90;;;;;;5097380;28;20959;-84
2022/01/03 03:57:21;;;;;;;1.63;0.53;;;8.20;99.90;;;;;;5115768;28;20169;-86
2022/01/03 03:59:46;;;;;;;4.30;0.50;;;8.20;99.90;;;;;;5115733;28;20166;-87
2022/01/03 04:02:12;;;;;;;3.20;0.50;;;8.30;99.90;;;;;;5097674;28;20774;-86
2022/01/03 04:04:37;;;;;;;7.30;0.70;;;8.30;99.90;;;;;;5097065;28;20685;-84
2022/01/03 04:07:03;;;;;;;5.43;1.13;;;8.40;99.90;;;;;;5115538;28;20250;-86
2022/01/03 04:09:32;;;;;;;3.20;1.13;;;8.40;99.90;;;;;;5114576;28;20182;-86
2022/01/03 04:11:57;;;;;;;3.93;0.83;;;8.30;99.90;;;;;;5097234;28;20170;-87
2022/01/03 04:14:23;;;;;;;1.70;0.40;;;8.40;99.90;;;;;;5096995;28;20889;-84
2022/01/03 04:16:48;;;;;;;4.83;0.40;;;8.40;99.90;;;;;;5096315;28;20177;-85
2022/01/03 04:19:14;;;;;;;4.50;1.17;;;8.40;99.90;;;;;;5096610;28;20170;-84
2022/01/03 04:21:39;;;;;;;7.50;0.73;;;8.40;99.90;;;;;;5115197;28;20257;-85
2022/01/03 04:24:10;;;;;;;3.43;0.70;;;8.40;99.90;;;;;;5096811;28;20181;-85
2022/01/03 04:26:36;;;;;;;3.03;0.40;;;8.40;99.90;;;;;;5114910;28;20618;-84
2022/01/03 04:29:03;;;;;;;10.90;1.30;;;8.50;99.90;;;;;;5112992;28;20806;-83
2022/01/03 04:31:30;;;;;;;5.30;0.77;;;8.50;99.90;;;;;;5113595;28;20416;-84
2022/01/03 04:33:56;;;;;;;6.93;1.73;;;8.50;99.90;;;;;;5113824;28;20860;-85
2022/01/03 04:36:22;;;;;;;4.57;0.40;;;8.50;99.90;;;;;;5096450;28;20472;-85
2022/01/03 04:38:48;;;;;;;8.80;1.03;;;8.50;99.90;;;;;;5096382;28;20471;-86
2022/01/03 04:41:16;;;;;;;3.80;1.33;;;8.50;99.90;;;;;;5114883;28;20768;-85
2022/01/03 04:43:45;;;;;;;5.77;0.67;;;8.50;99.90;;;;;;5114785;28;20166;-85
2022/01/03 04:46:11;;;;;;;4.30;1.90;;;8.50;99.90;;;;;;5114847;28;20456;-85
2022/01/03 04:48:38;;;;;;;5.47;0.70;;;8.50;99.90;;;;;;5114413;28;20787;-84
2022/01/03 04:51:04;;;;;;;6.93;1.03;;;8.50;99.90;;;;;;5114655;28;20787;-85
2022/01/03 04:53:30;;;;;;;6.33;0.83;;;8.50;99.90;;;;;;5096395;28;20455;-84
2022/01/03 04:55:56;;;;;;;4.00;0.80;;;8.50;99.90;;;;;;5114533;28;20492;-86
2022/01/03 04:58:22;;;;;;;10.50;1.50;;;8.50;99.90;;;;;;5114507;28;20174;-85
2022/01/03 05:00:48;;;;;;;6.43;1.03;;;8.50;99.90;;;;;;5114382;28;20900;-85
2022/01/03 05:03:14;;;;;;;3.63;0.87;;;8.50;99.90;;;;;;5114345;28;20419;-85
2022/01/03 05:05:43;;;;;;;11.10;1.60;;;8.50;99.90;;;;;;5114094;28;20897;-85
2022/01/03 05:08:09;;;;;;;8.87;1.93;;;8.50;99.90;;;;;;5114354;28;20169;-84
2022/01/03 05:10:34;;;;;;;7.70;1.50;;;8.50;99.90;;;;;;5114292;28;20412;-84
2022/01/03 05:13:00;;;;;;;8.30;1.23;;;8.60;99.90;;;;;;5114145;28;20416;-84
2022/01/03 05:15:26;;;;;;;7.47;1.93;;;8.60;99.90;;;;;;5114112;28;20756;-84
2022/01/03 05:17:52;;;;;;;7.40;0.70;;;8.60;99.90;;;;;;5114100;28;20920;-84
2022/01/03 05:20:20;;;;;;;5.90;1.30;;;8.60;99.90;;;;;;5113814;28;20256;-84
2022/01/03 05:22:46;;;;;;;10.57;2.30;;;8.60;99.90;;;;;;5114085;28;20488;-84
2022/01/03 05:25:11;;;;;;;9.83;2.10;;;8.60;99.90;;;;;;5113970;28;20457;-84
2022/01/03 05:27:38;;;;;;;13.73;1.13;;;8.60;99.90;;;;;;5095708;28;20178;-84
2022/01/03 05:30:04;;;;;;;9.03;2.00;;;8.60;99.90;;;;;;5113097;28;20181;-84
2022/01/03 05:32:30;;;;;;;10.43;1.23;;;8.60;99.90;;;;;;5113282;28;20423;-84
2022/01/03 05:34:56;;;;;;;10.83;1.60;;;8.50;99.90;;;;;;5095141;28;20794;-85
2022/01/03 05:37:22;;;;;;;5.93;1.43;;;8.60;99.90;;;;;;5113640;28;20451;-85
2022/01/03 05:39:47;;;;;;;11.47;1.90;;;8.60;99.90;;;;;;5113835;28;20649;-85
2022/01/03 05:42:13;;;;;;;8.37;1.20;;;8.60;99.90;;;;;;5095502;28;20177;-84
2022/01/03 05:44:38;;;;;;;8.13;2.53;;;8.60;99.90;;;;;;5095504;28;20239;-84
2022/01/03 05:47:04;;;;;;;4.47;0.93;;;8.50;99.90;;;;;;5113707;28;20211;-85
2022/01/03 05:49:30;;;;;;;7.47;1.30;;;8.40;99.90;;;;;;5113203;28;20199;-85
2022/01/03 05:51:55;;;;;;;12.43;1.83;;;8.50;99.90;;;;;;5095594;28;20167;-84
2022/01/03 05:54:23;;;;;;;9.70;0.97;;;8.50;99.90;;;;;;5113498;28;20177;-85
2022/01/03 05:56:49;;;;;;;8.13;0.80;;;8.60;99.90;;;;;;5095265;28;20272;-84
2022/01/03 05:59:15;;;;;;;11.10;1.40;;;8.60;99.90;;;;;;5113422;28;20507;-85
2022/01/03 06:01:41;;;;;;;13.30;2.83;;;8.60;99.90;;;;;;5113543;28;20177;-85
2022/01/03 06:04:25;;;;;;;6.10;0.83;;;8.60;99.90;;;;;;5095011;28;20170;-85
2022/01/03 06:06:59;;;;;;;6.53;0.80;;;8.60;99.90;;;;;;5095315;28;20471;-84
2022/01/03 06:09:25;;;;;;;5.03;0.80;;;8.60;99.90;;;;;;5113560;28;20980;-85
2022/01/03 06:11:52;;;;;;;4.63;0.70;;;8.50;99.90;;;;;;5113443;28;20409;-84
2022/01/03 06:14:24;;;;;;;6.97;0.97;;;8.60;99.90;;;;;;5113348;28;20166;-84
2022/01/03 06:16:50;;;;;;;6.50;1.43;;;8.50;99.90;;;;;;5113426;28;20423;-84
2022/01/03 06:19:16;;;;;;;8.13;1.33;;;8.60;99.90;;;;;;5112868;28;20903;-85
2022/01/03 06:21:42;;;;;;;10.23;1.43;;;8.60;99.90;;;;;;5113274;28;20423;-84
2022/01/03 06:24:09;;;;;;;5.80;1.43;;;8.60;99.90;;;;;;5113224;28;20550;-85
2022/01/03 06:26:36;;;;;;;11.53;3.73;;;8.70;99.90;;;;;;5095007;28;20418;-85
2022/01/03 06:29:05;;;;;;;15.90;3.23;;;8.60;99.90;;;;;;5113215;28;20411;-84
2022/01/03 06:31:32;;;;;;;10.73;3.40;;;8.70;99.90;;;;;;5113229;28;20415;-86
2022/01/03 06:33:58;;;;;;;8.00;1.27;;;8.60;99.90;;;;;;5094618;28;20419;-84
2022/01/03 06:36:23;;;;;;;18.50;2.50;;;8.60;99.90;;;;;;5094841;28;20541;-84
2022/01/03 06:38:49;;;;;;;13.20;2.50;;;8.70;99.90;;;;;;5112936;28;20483;-84
2022/01/03 06:41:14;;;;;;;11.00;2.90;;;8.70;99.90;;;;;;5116135;28;20176;-85
2022/01/03 06:43:40;;;;;;;16.63;3.40;;;8.70;99.90;;;;;;5117135;28;20215;-85
2022/01/03 06:46:05;;;;;;;14.70;2.70;;;8.70;99.90;;;;;;5098833;28;20173;-85
2022/01/03 06:48:31;;;;;;;13.93;1.73;;;8.70;99.90;;;;;;5116640;28;20694;-85
2022/01/03 06:50:56;;;;;;;12.63;1.97;;;8.70;99.90;;;;;;5117029;28;20202;-85
2022/01/03 06:53:22;;;;;;;13.00;1.57;;;8.70;99.90;;;;;;5116998;28;20345;-84
2022/01/03 06:55:47;;;;;;;8.00;1.20;;;8.70;99.90;;;;;;5098261;28;20270;-84
2022/01/03 06:58:13;;;;;;;7.13;1.17;;;8.60;99.90;;;;;;5116882;28;20192;-84
2022/01/03 07:00:38;;;;;;;10.13;2.00;;;8.60;99.90;;;;;;5098547;28;20166;-84
2022/01/03 07:03:04;;;;;;;8.00;0.97;;;8.60;99.90;;;;;;5116740;28;20320;-85
2022/01/03 07:05:30;;;;;;;12.23;1.40;;;8.60;99.90;;;;;;5116402;28;20171;-85
2022/01/03 07:07:55;;;;;;;10.50;1.73;;;8.60;99.90;;;;;;5116728;28;20501;-85
2022/01/03 07:10:21;;;;;;;9.40;1.80;;;8.60;99.90;;;;;;5116658;28;20224;-85
2022/01/03 07:12:51;;;;;;;8.83;2.60;;;8.60;99.90;;;;;;5098303;28;20171;-85
2022/01/03 07:20:46;;;;;;;14.03;2.60;;;8.50;99.90;;;;;;5116538;28;20952;-84
2022/01/03 07:23:13;;;;;;;5.90;0.90;;;8.60;99.90;;;;;;5116356;28;20428;-84
2022/01/03 07:25:38;;;;;;;10.93;2.40;;;8.50;99.90;;;;;;5098068;28;20415;-84
2022/01/03 07:28:04;;;;;;;8.57;1.83;;;8.50;99.90;;;;;;5116265;28;20418;-84
2022/01/03 07:30:29;;;;;;;12.33;2.60;;;8.50;99.90;;;;;;5097980;28;20168;-84
2022/01/03 07:32:55;;;;;;;15.13;2.10;;;8.50;99.90;;;;;;5116164;28;20264;-84
2022/01/03 07:35:21;;;;;;;10.30;1.47;;;8.50;99.90;;;;;;5115683;28;20201;-84
2022/01/03 07:37:46;;;;;;;7.53;2.00;;;8.50;99.90;;;;;;5094273;28;20310;-85
2022/01/03 07:40:12;;;;;;;9.97;2.47;;;8.50;99.90;;;;;;5095665;28;20262;-84
2022/01/03 07:42:40;;;;;;;10.63;1.47;;;8.50;99.90;;;;;;5094351;28;20197;-84
2022/01/03 07:45:06;;;;;;;6.73;1.77;;;8.50;99.90;;;;;;5095479;28;20253;-84
2022/01/03 07:47:32;;;;;;;16.63;3.13;;;8.40;99.90;;;;;;5095515;28;20477;-84
2022/01/03 07:49:57;;;;;;;13.37;1.60;;;8.40;99.90;;;;;;5095263;28;20799;-85
2022/01/03 07:52:23;;;;;;;12.43;1.33;;;8.40;99.90;;;;;;5094474;28;20181;-84
2022/01/03 07:54:51;;;;;;;14.30;1.73;;;8.40;99.90;;;;;;5093926;28;20260;-84
2022/01/03 07:57:18;;;;;;;6.90;1.67;;;8.40;99.90;;;;;;5095375;28;20173;-84
2022/01/03 07:59:45;;;;;;;9.60;3.13;;;8.50;99.90;;;;;;5094053;28;20420;-84
2022/01/03 08:02:10;;;;;;;8.03;2.60;;;8.50;99.90;;;;;;5093958;28;20424;-84
2022/01/03 08:04:37;;;;;;;19.37;2.37;;;8.50;99.90;;;;;;5093741;28;20427;-84
2022/01/03 08:07:03;;;;;;;12.60;1.63;;;8.60;99.90;;;;;;5095199;28;20162;-84
2022/01/03 08:09:28;;;;;;;17.80;3.63;;;8.60;99.90;;;;;;5095099;28;20766;-84
2022/01/03 08:11:54;;;;;;;12.10;2.73;;;8.50;99.90;;;;;;5095005;28;20404;-83
2022/01/03 08:14:19;;;;;;;11.30;1.93;;;8.50;99.90;;;;;;5093622;28;20178;-83
2022/01/03 08:16:45;;;;;;;6.30;1.30;;;8.50;99.90;;;;;;5093639;28;20575;-83
2022/01/03 08:19:11;;;;;;;21.93;2.37;;;8.60;99.90;;;;;;5094524;28;20173;-83
2022/01/03 08:21:36;;;;;;;13.90;2.50;;;8.70;99.90;;;;;;5094907;28;20181;-83
2022/01/03 08:24:02;;;;;;;9.77;1.83;;;8.70;99.90;;;;;;5094822;28;20183;-84
2022/01/03 08:26:27;;;;;;;12.50;2.17;;;8.60;99.90;;;;;;5094673;28;20175;-83
2022/01/03 08:28:59;;;;;;;10.67;1.70;;;8.70;99.90;;;;;;5094739;28;20203;-84
2022/01/03 08:31:25;;;;;;;14.07;2.53;;;8.70;99.90;;;;;;5094648;28;20171;-84
2022/01/03 08:33:53;;;;;;;12.10;1.67;;;8.70;99.90;;;;;;5093077;28;20498;-84
2022/01/03 08:36:19;;;;;;;7.93;1.70;;;8.70;99.90;;;;;;5094474;28;20500;-83
2022/01/03 08:38:48;;;;;;;17.20;2.37;;;8.70;99.90;;;;;;5110184;28;20452;-85
2022/01/03 08:41:13;;;;;;;14.60;2.10;;;8.70;99.90;;;;;;5096485;28;20424;-85
2022/01/03 08:43:39;;;;;;;9.10;2.93;;;8.70;99.90;;;;;;5096823;28;20417;-84
2022/01/03 08:46:05;;;;;;;13.93;3.77;;;8.70;99.90;;;;;;5114771;28;20171;-84
2022/01/03 08:48:31;;;;;;;15.20;3.50;;;8.70;99.90;;;;;;5114983;28;20171;-84
2022/01/03 08:50:56;;;;;;;22.40;3.90;;;8.80;99.90;;;;;;5109997;28;20177;-84
2022/01/03 08:53:26;;;;;;;10.73;1.87;;;8.80;99.90;;;;;;5096432;28;20420;-85
2022/01/03 08:55:56;;;;;;;15.27;3.90;;;8.80;99.90;;;;;;5114603;28;20195;-85
2022/01/03 08:58:22;;;;;;;13.63;3.10;;;8.80;99.90;;;;;;5114627;28;20436;-88
2022/01/03 09:00:48;;;;;;;13.93;2.93;;;8.80;99.90;;;;;;5114856;28;20513;-84
2022/01/03 09:03:17;;;;;;;16.27;3.90;;;8.80;99.90;;;;;;5096463;28;20456;-83
2022/01/03 09:05:42;;;;;;;15.37;3.80;;;8.90;99.90;;;;;;5114411;28;20183;-83
2022/01/03 09:08:10;;;;;;;10.40;1.97;;;9.10;99.90;;;;;;5096290;28;20412;-83
2022/01/03 09:10:36;;;;;;;10.60;2.90;;;9.30;99.90;;;;;;5114474;28;20599;-84
2022/01/03 09:13:04;;;;;;;14.50;2.23;;;9.60;99.90;;;;;;5096053;28;20981;-85
2022/01/03 09:15:31;;;;;;;17.57;2.90;;;9.40;99.90;;;;;;5095831;28;20480;-84
2022/01/03 09:17:56;;;;;;;13.77;1.87;;;9.20;99.90;;;;;;5095439;28;20417;-85
2022/01/03 09:20:22;;;;;;;8.93;1.50;;;9.10;99.90;;;;;;5114105;28;20416;-85
2022/01/03 09:22:51;;;;;;;16.23;2.67;;;9.00;99.90;;;;;;5095912;28;20224;-85
2022/01/03 09:30:28;;;;;;;10.07;1.37;;;8.80;99.90;;;;;;5114069;28;20178;-85
2022/01/03 09:32:54;;;;;;;10.77;1.80;;;8.80;99.90;;;;;;5095400;28;20826;-85
2022/01/03 09:35:21;;;;;;;12.43;3.80;;;8.90;99.90;;;;;;5113757;28;20725;-84
2022/01/03 09:37:47;;;;;;;9.00;1.53;;;8.80;99.90;;;;;;5113810;28;20308;-85
2022/01/03 09:40:12;;;;;;;9.53;2.47;;;8.90;99.90;;;;;;5113849;28;20451;-85
2022/01/03 09:42:39;;;;;;;6.83;3.10;;;8.80;99.90;;;;;;5113754;28;20691;-85
2022/01/03 09:45:08;;;;;;;13.00;3.03;;;8.80;99.90;;;;;;5095477;28;20262;-84
2022/01/03 09:47:39;;;;;;;9.23;2.90;;;8.80;99.90;;;;;;5113692;28;20452;-84
2022/01/03 09:50:06;;;;;;;8.80;2.10;;;8.90;99.90;;;;;;5113137;28;20425;-87
2022/01/03 09:52:33;;;;;;;14.57;3.50;;;9.00;99.90;;;;;;5089928;28;20428;-85
2022/01/03 09:55:00;;;;;;;10.37;1.33;;;9.10;99.90;;;;;;5093692;28;20465;-85
2022/01/03 09:57:27;;;;;;;9.37;2.33;;;9.20;99.90;;;;;;5093940;28;20424;-84
2022/01/03 09:59:54;;;;;;;13.27;3.73;;;9.40;99.90;;;;;;5112096;28;20958;-84
2022/01/03 10:02:21;;;;;;;11.90;1.70;;;9.50;99.90;;;;;;5094283;28;20522;-84
2022/01/03 10:04:48;;;;;;;12.60;2.43;;;9.40;99.90;;;;;;5112124;28;20417;-84
2022/01/03 10:07:14;;;;;;;5.60;1.63;;;9.30;99.90;;;;;;5112578;28;20420;-86
2022/01/03 10:09:43;;;;;;;16.33;3.20;;;9.20;99.90;;;;;;5094884;28;20429;-88
2022/01/03 10:12:11;;;;;;;9.10;2.50;;;9.20;99.90;;;;;;5113412;28;20424;-88
2022/01/03 10:14:36;;;;;;;17.53;3.60;;;9.10;99.90;;;;;;5113816;28;20915;-87
2022/01/03 10:17:02;;;;;;;9.53;1.67;;;9.10;99.90;;;;;;5117734;28;20456;-86
2022/01/03 10:19:27;;;;;;;13.03;2.30;;;9.00;99.90;;;;;;5099165;28;20178;-84
2022/01/03 10:21:53;;;;;;;6.53;1.00;;;8.90;99.90;;;;;;5099472;28;20202;-85
2022/01/03 10:24:29;;;;;;;4.63;0.67;;;8.80;99.90;;;;;;5117589;28;20630;-85
2022/01/03 10:26:56;;;;;;;11.50;1.67;;;8.70;99.90;;;;;;5117574;28;20173;-85
2022/01/03 10:29:31;;;;;;;8.17;1.37;;;8.60;99.90;;;;;;5117724;28;20514;-87
2022/01/03 10:32:00;;;;;;;12.93;2.63;;;8.60;99.90;;;;;;5117789;28;20774;-82
2022/01/03 10:34:26;;;;;;;6.93;1.30;;;8.50;99.90;;;;;;5116944;28;20420;-84
2022/01/03 10:36:54;;;;;;;9.23;2.20;;;8.50;99.90;;;;;;5117334;28;20960;-83
2022/01/03 10:39:22;;;;;;;5.70;1.57;;;8.50;99.90;;;;;;5117572;28;20424;-84
2022/01/03 10:41:53;;;;;;;5.90;1.37;;;8.50;99.90;;;;;;5098971;28;20432;-84
2022/01/03 10:44:33;;;;;;;3.40;0.73;;;8.40;99.90;;;;;;5115416;28;20403;-85
2022/01/03 10:47:02;;;;;;;8.93;1.03;;;8.40;99.90;;;;;;5059481;28;20475;-85
2022/01/03 10:49:28;;;;;;;10.40;1.23;;;8.40;99.90;;;;;;5095508;28;20424;-87
2022/01/03 10:52:10;;;;;;;6.83;1.73;;;8.40;99.90;;;;;;5100686;28;20428;-86
2022/01/03 10:54:36;;;;;;;7.10;1.47;;;8.40;99.90;;;;;;5112373;28;20406;-86
2022/01/03 10:57:02;;;;;;;12.83;2.27;;;8.50;99.90;;;;;;5098334;28;20441;-87
2022/01/03 10:59:30;;;;;;;7.40;2.60;;;8.50;99.90;;;;;;5116532;28;20174;-83
2022/01/03 11:01:59;;;;;;;8.67;2.07;;;9.30;99.90;;;;;;5116467;28;20212;-85
2022/01/03 11:13:18;;;;;;;5.93;1.93;;;10.60;99.90;;;;;;5111198;28;20428;-86
2022/01/03 11:16:01;;;;;;;10.83;2.60;;;9.80;99.90;;;;;;5110285;28;20957;-89
2022/01/03 11:18:29;;;;;;;11.67;1.57;;;9.60;99.90;;;;;;5115841;28;20414;-88
2022/01/03 11:21:16;;;;;;;10.17;2.63;;;9.50;99.90;;;;;;5116243;28;20777;-84
2022/01/03 11:23:43;;;;;;;15.07;2.97;;;9.70;99.90;;;;;;5116807;28;20492;-86
2022/01/03 11:26:14;;;;;;;19.83;2.93;;;10.70;99.90;;;;;;5116085;28;20403;-91
2022/01/03 11:28:40;;;;;;;12.70;1.70;;;11.50;99.90;;;;;;5116328;28;20491;-85
2022/01/03 11:31:10;;;;;;;13.37;2.93;;;11.70;99.90;;;;;;5116258;28;20410;-85
2022/01/03 11:33:37;;;;;;;14.50;2.10;;;11.60;99.90;;;;;;5115789;28;20419;-87
2022/01/03 11:36:04;;;;;;;12.80;3.00;;;10.90;99.90;;;;;;5116021;28;20548;-86
2022/01/03 11:38:31;;;;;;;13.20;3.17;;;10.60;99.90;;;;;;5116103;28;20474;-85
2022/01/03 11:41:00;;;;;;;16.70;2.80;;;10.20;99.90;;;;;;5098275;28;20507;-84
2022/01/03 11:43:32;;;;;;;6.63;1.20;;;10.10;99.90;;;;;;5116458;28;20415;-82
2022/01/03 11:45:57;;;;;;;14.13;3.27;;;10.80;99.90;;;;;;5098659;28;20517;-88
2022/01/03 11:48:26;;;;;;;13.70;3.30;;;10.90;99.90;;;;;;5116359;28;20440;-83
2022/01/03 11:50:53;;;;;;;12.43;2.53;;;10.60;99.90;;;;;;5116179;28;20177;-83
2022/01/03 11:53:20;;;;;;;14.63;2.13;;;11.00;99.90;;;;;;5110045;28;20420;-83
2022/01/03 11:55:50;;;;;;;5.90;1.50;;;11.80;99.90;;;;;;5114321;28;20915;-83
2022/01/03 11:58:41;;;;;;;14.30;1.70;;;11.70;99.90;;;;;;5113713;28;20399;-86
2022/01/03 12:03:54;;;;;;;9.97;2.03;;;10.90;99.90;;;;;;5114584;28;20402;-86
2022/01/03 12:06:46;;;;;;;9.83;1.87;;;11.10;99.90;;;;;;5114993;28;20501;-87
2022/01/03 12:09:15;;;;;;;7.80;2.40;;;11.20;99.90;;;;;;5110523;28;20427;-88
2022/01/03 12:11:56;;;;;;;11.10;2.07;;;10.80;99.90;;;;;;5115070;28;20810;-86
2022/01/03 12:14:37;;;;;;;10.23;2.37;;;10.30;99.90;;;;;;5096974;28;20422;-86
2022/01/03 12:17:05;;;;;;;13.27;2.70;;;10.10;99.90;;;;;;5114930;28;20763;-87
2022/01/03 12:19:36;;;;;;;11.10;1.43;;;9.90;99.90;;;;;;5114606;28;20762;-87
2022/01/03 12:22:24;;;;;;;11.30;3.13;;;10.00;99.90;;;;;;5115088;28;20401;-85
2022/01/03 12:25:05;;;;;;;15.47;1.73;;;10.10;99.90;;;;;;5114389;28;20402;-86
2022/01/03 12:27:33;;;;;;;11.00;2.33;;;9.90;99.90;;;;;;5114675;28;20401;-88
2022/01/03 12:29:59;;;;;;;12.47;2.17;;;9.80;99.90;;;;;;5114575;28;20433;-87
2022/01/03 12:32:35;;;;;;;10.37;2.50;;;9.70;99.90;;;;;;5114143;28;21153;-87
2022/01/03 12:35:10;;;;;;;14.57;2.00;;;9.80;99.90;;;;;;5096091;28;20583;-87
2022/01/03 12:37:49;;;;;;;15.20;3.20;;;10.10;99.90;;;;;;5095297;28;20458;-88
2022/01/03 12:40:27;;;;;;;11.53;2.63;;;10.60;99.90;;;;;;5096359;28;20463;-88
2022/01/03 12:42:59;;;;;;;11.60;2.17;;;10.80;99.90;;;;;;5114429;28;20424;-86
2022/01/03 12:45:30;;;;;;;7.97;1.63;;;10.10;99.90;;;;;;5113943;28;20411;-85
2022/01/03 12:48:19;;;;;;;6.50;1.53;;;9.70;99.90;;;;;;5095601;28;20559;-88
2022/01/03 12:50:52;;;;;;;13.67;2.30;;;9.50;99.90;;;;;;5114026;28;20761;-87
2022/01/03 12:53:26;;;;;;;14.60;1.70;;;9.70;99.90;;;;;;5114722;28;20402;-82
2022/01/03 12:56:01;;;;;;;7.50;2.27;;;9.60;99.90;;;;;;5114341;28;21018;-81
2022/01/03 12:58:26;;;;;;;9.70;2.40;;;9.50;99.90;;;;;;5114328;28;20412;-81
2022/01/03 13:00:59;;;;;;;11.53;2.30;;;9.40;99.90;;;;;;5114499;28;20421;-81
2022/01/03 13:03:29;;;;;;;12.13;2.10;;;9.40;99.90;;;;;;5114110;28;20195;-85
2022/01/03 13:06:27;;;;;;;7.00;1.80;;;9.70;99.90;;;;;;5096116;28;20446;-81
2022/01/03 13:08:55;;;;;;;8.87;2.97;;;9.70;99.90;;;;;;5114467;28;20398;-83
2022/01/03 13:11:25;;;;;;;10.60;2.63;;;9.60;99.90;;;;;;5114377;28;20405;-82
2022/01/03 13:14:00;;;;;;;8.60;2.20;;;9.50;99.90;;;;;;5114196;28;20405;-81
2022/01/03 13:16:33;;;;;;;10.40;2.17;;;9.50;99.90;;;;;;5114146;28;20881;-83
2022/01/03 13:19:22;;;;;;;9.27;1.70;;;9.50;99.90;;;;;;5095464;28;20410;-81
2022/01/03 13:21:51;;;;;;;8.97;2.00;;;9.40;99.90;;;;;;5114306;28;20928;-82
2022/01/03 13:24:45;;;;;;;10.00;2.57;;;9.20;99.90;;;;;;5114078;28;20824;-82
2022/01/03 13:27:14;;;;;;;6.63;2.20;;;9.30;99.90;;;;;;5113987;28;20414;-81
2022/01/03 13:29:53;;;;;;;7.20;1.60;;;9.30;99.90;;;;;;5113941;28;20839;-81